createdAt,value
2019-01-26T00:04:14.498Z,49.78
2019-01-26T00:09:22.828Z,48.70
2019-01-26T00:14:30.822Z,56.40
2019-01-26T00:19:39.029Z,55.43
2019-01-26T00:24:46.974Z,61.67
2019-01-26T00:29:55.157Z,61.20
2019-01-26T00:35:03.122Z,59.57
2019-01-26T00:40:11.280Z,62.63
2019-01-26T00:45:19.280Z,70.32
2019-01-26T00:50:27.342Z,64.96
2019-01-26T00:55:35.376Z,70.35
2019-01-26T01:00:43.496Z,71.41
2019-01-26T01:05:51.528Z,67.30
2019-01-26T01:10:59.613Z,71.68
2019-01-26T01:16:07.669Z,75.21
2019-01-26T01:21:15.722Z,78.46
2019-01-26T01:26:23.765Z,82.06
2019-01-26T01:31:31.952Z,75.37
2019-01-26T01:36:39.950Z,95.22
2019-01-26T01:41:48.020Z,99.80
2019-01-26T01:46:56.066Z,102.58
2019-01-26T01:52:04.332Z,85.21
2019-01-26T01:57:12.388Z,101.98
2019-01-26T02:02:20.522Z,84.11
2019-01-26T02:07:28.588Z,99.53
2019-01-26T02:12:36.697Z,85.81
2019-01-26T02:17:44.661Z,112.90
2019-01-26T02:22:52.771Z,100.92
2019-01-26T02:28:01.057Z,93.11
2019-01-26T02:33:09.112Z,92.50
2019-01-26T02:38:17.116Z,94.25
2019-01-26T02:43:25.590Z,85.98
2019-01-26T02:48:33.565Z,89.01
2019-01-26T02:53:41.962Z,108.36
2019-01-26T02:58:49.963Z,94.22
2019-01-26T03:03:58.370Z,112.68
2019-01-26T03:09:06.364Z,108.68
2019-01-26T03:14:14.549Z,121.30
2019-01-26T03:19:22.541Z,143.58
2019-01-26T03:24:30.696Z,115.76
2019-01-26T03:29:39.034Z,173.12
2019-01-26T03:34:47.143Z,144.53
2019-01-26T03:39:55.129Z,115.27
2019-01-26T03:45:03.325Z,97.01
2019-01-26T03:50:11.330Z,128.57
2019-01-26T03:55:19.993Z,89.45
2019-01-26T04:00:28.113Z,97.85
2019-01-26T04:05:36.230Z,83.12
2019-01-26T04:10:44.254Z,81.39
2019-01-26T04:15:52.753Z,74.34
2019-01-26T04:21:00.745Z,64.10
2019-01-26T04:26:08.817Z,54.45
2019-01-26T04:31:16.825Z,43.64
2019-01-26T04:36:24.948Z,52.16
2019-01-26T04:41:33.007Z,61.42
2019-01-26T04:46:41.142Z,57.61
2019-01-26T04:51:50.206Z,54.45
2019-01-26T04:56:58.244Z,54.90
2019-01-26T05:02:06.209Z,49.97
2019-01-26T05:07:14.316Z,55.43
2019-01-26T05:12:22.385Z,57.22
2019-01-26T05:17:30.486Z,64.04
2019-01-26T05:22:38.521Z,50.12
2019-01-26T05:27:46.820Z,51.87
2019-01-26T05:32:54.793Z,62.13
2019-01-26T05:38:02.909Z,47.96
2019-01-26T05:43:10.940Z,49.03
2019-01-26T05:48:19.009Z,45.37
2019-01-26T05:53:27.072Z,43.56
2019-01-26T05:58:35.136Z,42.13
2019-01-26T06:03:43.136Z,40.48
2019-01-26T06:08:51.257Z,39.85
2019-01-26T06:13:59.621Z,40.92
2019-01-26T06:19:07.685Z,36.78
2019-01-26T06:24:15.653Z,34.10
2019-01-26T06:29:23.781Z,34.69
2019-01-26T06:34:31.762Z,33.71
2019-01-26T06:39:39.913Z,35.51
2019-01-26T06:44:47.942Z,35.15
2019-01-26T06:49:56.025Z,36.46
2019-01-26T06:55:04.147Z,35.96
2019-01-26T07:00:12.181Z,38.73
2019-01-26T07:05:20.537Z,36.32
2019-01-26T07:10:28.633Z,38.90
2019-01-26T07:15:36.621Z,42.16
2019-01-26T07:20:44.713Z,40.76
2019-01-26T07:25:52.697Z,40.98
2019-01-26T07:31:00.911Z,40.30
2019-01-26T07:36:08.868Z,40.50
2019-01-26T07:41:17.021Z,40.58
2019-01-26T07:46:25.037Z,39.09
2019-01-26T07:51:33.141Z,35.15
2019-01-26T07:56:41.189Z,36.75
2019-01-26T08:01:49.429Z,36.46
2019-01-26T08:06:57.409Z,33.65
2019-01-26T08:12:05.496Z,30.44
2019-01-26T08:17:13.689Z,33.25
2019-01-26T08:22:21.914Z,31.68
2019-01-26T08:27:29.922Z,35.85
2019-01-26T08:32:38.044Z,28.70
2019-01-26T08:37:46.141Z,29.24
2019-01-26T08:42:54.236Z,27.94
2019-01-26T08:48:02.629Z,29.07
2019-01-26T08:53:10.941Z,28.42
2019-01-26T08:58:18.979Z,26.92
2019-01-26T09:03:27.160Z,22.83
2019-01-26T09:08:35.225Z,23.56
2019-01-26T09:13:43.765Z,21.29
2019-01-26T09:18:51.726Z,21.49
2019-01-26T09:23:59.932Z,19.41
2019-01-26T09:29:08.132Z,16.92
2019-01-26T09:34:16.285Z,17.84
2019-01-26T09:39:25.473Z,17.47
2019-01-26T09:44:33.561Z,15.30
2019-01-26T09:49:41.529Z,15.14
2019-01-26T09:54:49.650Z,15.25
2019-01-26T09:59:57.628Z,14.30
2019-01-26T10:05:05.909Z,15.46
2019-01-26T10:10:13.894Z,16.52
2019-01-26T10:15:22.497Z,12.49
2019-01-26T10:20:30.470Z,13.85
2019-01-26T10:25:38.552Z,15.27
2019-01-26T10:30:46.557Z,13.19
2019-01-26T10:35:54.700Z,13.65
2019-01-26T10:41:02.650Z,12.25
2019-01-26T10:46:10.762Z,13.21
2019-01-26T10:51:18.795Z,14.53
2019-01-26T10:56:27.113Z,12.64
2019-01-26T11:01:36.048Z,11.99
2019-01-26T11:06:44.293Z,12.76
2019-01-26T11:11:52.807Z,13.13
2019-01-26T11:17:02.992Z,10.30
2019-01-26T11:22:01.818Z,10.96
2019-01-26T11:27:10.898Z,10.60
2019-01-26T11:32:19.217Z,10.15
2019-01-26T11:37:27.308Z,11.62
2019-01-26T11:42:35.319Z,8.84
2019-01-26T11:47:43.579Z,9.09
2019-01-26T11:52:51.525Z,10.46
2019-01-26T11:57:59.657Z,9.68
2019-01-26T12:03:07.646Z,7.37
2019-01-26T12:08:16.083Z,8.06
2019-01-26T12:13:24.097Z,8.19
2019-01-26T12:18:32.213Z,7.72
2019-01-26T12:23:40.269Z,7.66
2019-01-26T12:28:48.396Z,6.62
2019-01-26T12:33:56.440Z,7.51
2019-01-26T12:39:04.542Z,6.09
2019-01-26T12:44:12.485Z,8.25
2019-01-26T12:49:20.629Z,7.34
2019-01-26T12:54:28.662Z,7.57
2019-01-26T12:59:37.002Z,6.81
2019-01-26T13:04:44.961Z,6.44
2019-01-26T13:09:51.538Z,6.39
2019-01-26T13:14:59.812Z,5.90
2019-01-26T13:20:13.820Z,6.13
2019-01-26T13:25:10.166Z,7.00
2019-01-26T13:30:18.244Z,5.63
2019-01-26T13:35:26.229Z,6.19
2019-01-26T13:40:34.311Z,6.37
2019-01-26T13:45:42.398Z,6.62
2019-01-26T13:50:50.601Z,6.88
2019-01-26T13:55:58.784Z,6.64
2019-01-26T14:01:07.110Z,7.01
2019-01-26T14:06:15.161Z,7.43
2019-01-26T14:11:23.412Z,7.32
2019-01-26T14:16:31.408Z,7.82
2019-01-26T14:21:39.698Z,8.56
2019-01-26T14:26:49.760Z,9.33
2019-01-26T14:31:55.398Z,8.48
2019-01-26T14:37:05.981Z,9.05
2019-01-26T14:42:04.690Z,9.16
2019-01-26T14:47:12.770Z,8.84
2019-01-26T14:52:20.864Z,9.89
2019-01-26T14:57:28.808Z,9.33
2019-01-26T15:02:37.053Z,9.18
2019-01-26T15:07:45.105Z,10.40
2019-01-26T15:12:53.169Z,13.33
2019-01-26T15:18:01.169Z,14.71
2019-01-26T15:23:09.425Z,15.47
2019-01-26T15:28:17.490Z,17.77
2019-01-26T15:33:25.548Z,18.59
2019-01-26T15:38:33.610Z,16.92
2019-01-26T15:43:41.809Z,20.18
2019-01-26T15:48:50.113Z,21.33
2019-01-26T15:53:58.268Z,21.56
2019-01-26T15:59:06.269Z,23.43
2019-01-26T16:04:14.536Z,20.61
2019-01-26T16:09:22.913Z,19.88
2019-01-26T16:14:31.160Z,18.71
2019-01-26T16:19:39.141Z,18.50
2019-01-26T16:24:47.424Z,15.37
2019-01-26T16:29:55.557Z,12.74
2019-01-26T16:35:03.933Z,12.93
2019-01-26T16:40:12.843Z,14.44
2019-01-26T16:45:21.998Z,14.83
2019-01-26T16:50:28.362Z,14.23
2019-01-26T16:55:36.488Z,15.04
2019-01-26T17:00:45.027Z,15.62
2019-01-26T17:05:54.057Z,15.50
2019-01-26T17:11:10.596Z,15.70
2019-01-26T17:16:08.708Z,19.43
2019-01-26T17:21:16.676Z,17.24
2019-01-26T17:26:25.133Z,19.50
2019-01-26T17:31:33.112Z,17.38
2019-01-26T17:36:41.720Z,15.47
2019-01-26T17:41:50.040Z,14.80
2019-01-26T17:46:58.259Z,15.10
2019-01-26T17:52:06.213Z,18.63
2019-01-26T17:57:14.951Z,15.22
2019-01-26T18:02:23.010Z,15.57
2019-01-26T18:07:31.108Z,15.51
2019-01-26T18:12:39.217Z,20.71
2019-01-26T18:17:47.369Z,21.62
2019-01-26T18:22:55.952Z,21.30
2019-01-26T18:28:06.289Z,21.91
2019-01-26T18:33:04.262Z,22.67
2019-01-26T18:38:12.343Z,23.74
2019-01-26T18:43:20.338Z,26.24
2019-01-26T18:48:28.485Z,29.40
2019-01-26T18:53:36.549Z,31.29
2019-01-26T18:58:44.601Z,34.11
2019-01-26T19:03:52.565Z,30.53
2019-01-26T19:09:00.674Z,32.22
2019-01-26T19:14:08.634Z,30.73
2019-01-26T19:19:16.816Z,29.61
2019-01-26T19:24:24.887Z,26.75
2019-01-26T19:29:32.980Z,25.19
2019-01-26T19:34:41.287Z,22.14
2019-01-26T19:39:49.409Z,24.26
2019-01-26T19:44:57.421Z,24.52
2019-01-26T19:50:05.509Z,25.18
2019-01-26T19:55:13.797Z,25.71
2019-01-26T20:00:21.990Z,29.70
2019-01-26T20:05:29.933Z,28.98
2019-01-26T20:10:38.100Z,28.70
2019-01-26T20:15:46.157Z,43.70
2019-01-26T20:20:54.774Z,33.47
2019-01-26T20:26:02.826Z,28.50
2019-01-26T20:31:10.992Z,28.57
2019-01-26T20:36:18.969Z,26.14
2019-01-26T20:41:27.076Z,30.14
2019-01-26T20:46:35.321Z,29.26
2019-01-26T20:51:43.477Z,30.85
2019-01-26T20:56:51.486Z,31.86
2019-01-26T21:01:59.702Z,31.39
2019-01-26T21:07:07.837Z,32.46
2019-01-26T21:12:15.945Z,33.99
2019-01-26T21:17:23.929Z,34.43
2019-01-26T21:22:32.116Z,37.97
2019-01-26T21:27:41.549Z,34.68
2019-01-26T21:32:47.774Z,34.49
2019-01-26T21:37:55.797Z,36.73
2019-01-26T21:43:04.083Z,35.94
2019-01-26T21:48:12.054Z,39.32
2019-01-26T21:53:20.572Z,36.04
2019-01-26T21:58:28.602Z,39.19
2019-01-26T22:03:37.355Z,36.89
2019-01-26T22:08:44.113Z,37.99
2019-01-26T22:13:52.324Z,39.59
2019-01-26T22:19:00.392Z,38.13
2019-01-26T22:24:08.816Z,38.72
2019-01-26T22:29:16.872Z,40.31
2019-01-26T22:34:24.969Z,38.85
2019-01-26T22:39:32.960Z,37.17
2019-01-26T22:44:41.097Z,38.13
2019-01-26T22:49:49.121Z,39.60
2019-01-26T22:54:57.484Z,41.19
2019-01-26T23:00:05.475Z,40.59
2019-01-26T23:05:13.576Z,37.28
2019-01-26T23:10:21.573Z,37.62
2019-01-26T23:15:29.697Z,38.09
2019-01-26T23:20:37.641Z,36.34
2019-01-26T23:25:45.745Z,36.22
2019-01-26T23:30:53.693Z,38.82
2019-01-26T23:36:01.841Z,36.40
2019-01-26T23:41:09.802Z,35.61
2019-01-26T23:46:17.928Z,35.08
2019-01-26T23:51:25.908Z,36.02
2019-01-26T23:56:34.025Z,35.17
